createdAt,value
2022-09-20T00:01:32.697Z,26.60
2022-09-20T00:05:44.101Z,26.30
2022-09-20T00:08:15.555Z,26.10
2022-09-20T00:10:44.155Z,26.20
2022-09-20T00:13:14.235Z,26.50
2022-09-20T00:15:46.806Z,26.60
2022-09-20T00:18:14.960Z,26.60
2022-09-20T00:20:47.611Z,26.60
2022-09-20T00:23:15.927Z,26.50
2022-09-20T00:25:44.695Z,26.30
2022-09-20T00:28:13.107Z,26.20
2022-09-20T00:30:41.410Z,26.20
2022-09-20T00:33:09.560Z,26.10
2022-09-20T00:35:37.711Z,26.10
2022-09-20T00:38:06.001Z,26.30
2022-09-20T00:40:34.270Z,26.60
2022-09-20T00:43:02.632Z,26.60
2022-09-20T00:45:31.759Z,26.40
2022-09-20T00:48:11.477Z,26.30
2022-09-20T00:50:51.969Z,26.20
2022-09-20T00:53:23.013Z,26.10
2022-09-20T00:56:02.108Z,26.10
2022-09-20T00:58:33.624Z,26.10
2022-09-20T01:01:02.025Z,26.30
2022-09-20T01:03:32.725Z,26.60
2022-09-20T01:06:06.974Z,26.70
2022-09-20T01:08:36.882Z,26.80
2022-09-20T01:11:05.377Z,26.80
2022-09-20T01:13:33.518Z,26.80
2022-09-20T01:16:03.109Z,26.50
2022-09-20T01:18:33.729Z,26.30
2022-09-20T01:21:03.260Z,26.20
2022-09-20T01:23:58.407Z,26.20
2022-09-20T01:26:49.903Z,26.10
2022-09-20T01:29:39.398Z,26.10
2022-09-20T01:32:14.253Z,26.40
2022-09-20T01:34:48.859Z,26.50
2022-09-20T01:37:20.234Z,26.20
2022-09-20T01:40:29.791Z,26.10
2022-09-20T01:43:31.426Z,26.00
2022-09-20T01:46:04.511Z,25.90
2022-09-20T01:48:39.716Z,25.90
2022-09-20T01:51:31.570Z,26.10
2022-09-20T01:54:24.578Z,26.30
2022-09-20T01:57:18.598Z,26.50
2022-09-20T02:00:14.285Z,26.60
2022-09-20T02:03:07.686Z,26.60
2022-09-20T02:05:45.199Z,26.30
2022-09-20T02:08:58.523Z,26.10
2022-09-20T02:11:45.583Z,26.00
2022-09-20T02:14:31.059Z,25.90
2022-09-20T02:17:13.230Z,25.90
2022-09-20T02:19:51.979Z,26.20
2022-09-20T02:22:27.238Z,26.50
2022-09-20T02:25:16.756Z,26.30
2022-09-20T02:28:06.644Z,26.10
2022-09-20T02:30:53.212Z,26.00
2022-09-20T02:33:45.601Z,26.00
2022-09-20T02:36:41.284Z,25.90
2022-09-20T02:39:36.553Z,26.20
2022-09-20T02:42:18.307Z,26.40
2022-09-20T02:45:22.382Z,26.50
2022-09-20T02:47:52.902Z,26.40
2022-09-20T02:50:32.065Z,26.40
2022-09-20T02:53:18.829Z,26.20
2022-09-20T02:56:12.149Z,25.90
2022-09-20T02:59:11.483Z,25.80
2022-09-20T03:02:01.383Z,25.70
2022-09-20T03:04:42.318Z,25.70
2022-09-20T03:07:13.707Z,25.80
2022-09-20T03:10:00.026Z,26.10
2022-09-20T03:12:50.917Z,26.20
2022-09-20T03:15:54.570Z,26.00
2022-09-20T03:18:48.874Z,25.80
2022-09-20T03:21:29.284Z,25.80
2022-09-20T03:24:13.567Z,25.70
2022-09-20T03:26:54.043Z,25.80
2022-09-20T03:29:51.400Z,26.20
2022-09-20T03:32:46.865Z,26.30
2022-09-20T03:35:50.682Z,26.40
2022-09-20T03:38:34.130Z,26.40
2022-09-20T03:41:14.403Z,26.30
2022-09-20T03:44:32.084Z,26.10
2022-09-20T03:47:22.166Z,25.90
2022-09-20T03:49:56.096Z,25.80
2022-09-20T03:52:45.867Z,25.70
2022-09-20T03:55:14.214Z,25.70
2022-09-20T03:58:00.929Z,25.90
2022-09-20T04:00:48.685Z,26.10
2022-09-20T04:03:39.341Z,26.10
2022-09-20T04:06:52.360Z,25.90
2022-09-20T04:09:31.912Z,25.80
2022-09-20T04:12:29.428Z,25.70
2022-09-20T04:15:06.782Z,25.70
2022-09-20T04:18:05.726Z,25.80
2022-09-20T04:21:04.500Z,26.10
2022-09-20T04:23:41.139Z,26.20
2022-09-20T04:26:09.505Z,26.20
2022-09-20T04:29:14.808Z,26.20
2022-09-20T04:31:54.243Z,26.10
2022-09-20T04:34:58.926Z,25.90
2022-09-20T04:37:35.542Z,25.80
2022-09-20T04:40:18.659Z,25.80
2022-09-20T04:43:08.545Z,25.90
2022-09-20T04:45:57.398Z,25.80
2022-09-20T04:49:03.658Z,25.90
2022-09-20T04:52:08.984Z,26.00
2022-09-20T04:55:09.090Z,26.10
2022-09-20T04:57:55.443Z,26.00
2022-09-20T05:00:24.963Z,25.90
2022-09-20T05:03:30.868Z,25.80
2022-09-20T05:06:36.567Z,25.70
2022-09-20T05:09:13.585Z,25.70
2022-09-20T05:12:16.238Z,25.90
2022-09-20T05:15:02.061Z,26.10
2022-09-20T05:17:37.030Z,26.30
2022-09-20T05:20:32.661Z,26.40
2022-09-20T05:23:23.807Z,26.30
2022-09-20T05:26:10.270Z,26.10
2022-09-20T05:28:47.772Z,25.80
2022-09-20T05:31:28.603Z,25.70
2022-09-20T05:34:27.137Z,25.70
2022-09-20T05:37:35.734Z,25.70
2022-09-20T05:40:19.701Z,25.60
2022-09-20T05:43:09.486Z,25.90
2022-09-20T05:45:55.828Z,26.20
2022-09-20T05:48:57.853Z,26.10
2022-09-20T05:51:53.029Z,25.90
2022-09-20T05:54:36.127Z,25.80
2022-09-20T05:57:48.898Z,25.70
2022-09-20T06:00:20.968Z,25.70
2022-09-20T06:03:10.082Z,25.70
2022-09-20T06:05:56.533Z,25.80
2022-09-20T06:08:32.434Z,26.00
2022-09-20T06:11:16.255Z,25.70
2022-09-20T06:14:08.684Z,25.50
2022-09-20T06:17:18.832Z,25.30
2022-09-20T06:19:47.026Z,25.10
2022-09-20T06:22:29.009Z,25.10
2022-09-20T06:25:09.199Z,25.00
2022-09-20T06:27:46.268Z,25.00
2022-09-20T06:30:37.760Z,25.00
2022-09-20T06:33:25.291Z,25.10
2022-09-20T06:36:02.541Z,25.30
2022-09-20T06:39:06.058Z,25.60
2022-09-20T06:41:35.323Z,25.40
2022-09-20T06:44:06.088Z,25.30
2022-09-20T06:46:35.920Z,25.20
2022-09-20T06:49:05.097Z,25.40
2022-09-20T06:51:38.402Z,25.50
2022-09-20T06:54:08.522Z,25.40
2022-09-20T06:56:37.097Z,25.50
2022-09-20T06:59:06.888Z,25.80
2022-09-20T07:01:35.316Z,25.90
2022-09-20T07:04:04.749Z,26.00
2022-09-20T07:06:34.165Z,26.40
2022-09-20T07:09:02.731Z,27.10
2022-09-20T07:11:31.079Z,27.70
2022-09-20T07:13:59.125Z,27.50
2022-09-20T07:16:27.668Z,27.30
2022-09-20T07:18:55.894Z,27.20
2022-09-20T07:21:24.386Z,27.00
2022-09-20T07:23:52.728Z,26.80
2022-09-20T07:26:24.375Z,27.70
2022-09-20T07:28:52.952Z,29.20
2022-09-20T07:31:23.376Z,31.30
2022-09-20T07:33:51.768Z,32.00
2022-09-20T07:36:20.690Z,33.30
2022-09-20T07:38:53.441Z,34.30
2022-09-20T07:41:21.867Z,33.40
2022-09-20T07:43:50.175Z,31.80
2022-09-20T07:46:18.581Z,30.80
2022-09-20T07:48:46.705Z,30.50
2022-09-20T07:51:14.893Z,31.30
2022-09-20T07:53:43.363Z,31.40
2022-09-20T07:56:15.014Z,30.70
2022-09-20T07:58:47.281Z,31.20
2022-09-20T08:01:18.211Z,34.60
2022-09-20T08:03:46.690Z,36.20
2022-09-20T08:06:15.402Z,37.30
2022-09-20T08:08:43.740Z,37.70
2022-09-20T08:11:17.851Z,38.00
2022-09-20T08:14:07.107Z,38.40
2022-09-20T08:16:41.536Z,38.50
2022-09-20T08:19:14.790Z,38.60
2022-09-20T08:21:43.182Z,37.80
2022-09-20T08:24:11.460Z,38.00
2022-09-20T08:26:40.165Z,39.30
2022-09-20T08:29:09.098Z,38.20
2022-09-20T08:31:40.167Z,40.00
2022-09-20T08:34:12.248Z,40.80
2022-09-20T08:36:43.347Z,41.20
2022-09-20T08:42:13.728Z,41.10
2022-09-20T08:44:57.883Z,42.00
2022-09-20T08:47:32.557Z,42.10
2022-09-20T08:50:12.331Z,42.20
2022-09-20T08:52:48.374Z,42.00
2022-09-20T08:55:23.966Z,42.10
2022-09-20T08:57:55.719Z,42.60
2022-09-20T09:00:28.797Z,42.60
2022-09-20T09:03:00.349Z,42.10
2022-09-20T09:05:36.765Z,41.80
2022-09-20T09:08:19.398Z,41.90
2022-09-20T09:10:58.169Z,40.50
2022-09-20T09:13:50.734Z,40.60
2022-09-20T09:16:27.442Z,38.80
2022-09-20T09:19:36.316Z,39.80
2022-09-20T09:22:06.191Z,36.80
2022-09-20T09:24:34.353Z,34.10
2022-09-20T09:27:20.650Z,32.30
2022-09-20T09:29:56.675Z,31.40
2022-09-20T09:32:32.865Z,31.80
2022-09-20T09:35:31.246Z,32.30
2022-09-20T09:38:02.061Z,31.80
2022-09-20T09:40:32.347Z,32.00
2022-09-20T09:43:03.798Z,32.00
2022-09-20T09:45:35.072Z,31.70
2022-09-20T09:48:03.695Z,31.70
2022-09-20T09:50:35.249Z,32.10
2022-09-20T09:53:21.317Z,32.20
2022-09-20T09:56:21.068Z,32.20
2022-09-20T09:58:58.108Z,32.80
2022-09-20T10:01:56.028Z,32.80
2022-09-20T10:04:56.502Z,32.80
2022-09-20T10:07:24.845Z,32.50
2022-09-20T10:10:05.472Z,31.90
2022-09-20T10:12:59.191Z,31.80
2022-09-20T10:15:52.817Z,32.10
2022-09-20T10:18:41.418Z,32.40
2022-09-20T10:21:44.661Z,32.80
2022-09-20T10:24:37.448Z,32.50
2022-09-20T10:27:36.288Z,32.60
2022-09-20T10:30:04.689Z,32.60
2022-09-20T10:32:59.418Z,32.20
2022-09-20T10:35:33.679Z,32.40
2022-09-20T10:38:04.896Z,32.60
2022-09-20T10:40:40.850Z,32.40
2022-09-20T10:43:21.384Z,32.70
2022-09-20T10:49:11.005Z,32.20
2022-09-20T10:52:08.280Z,32.20
2022-09-20T10:54:48.122Z,32.00
2022-09-20T10:57:47.281Z,32.30
2022-09-20T11:00:30.689Z,31.50
2022-09-20T11:03:05.191Z,31.00
2022-09-20T11:05:59.489Z,31.80
2022-09-20T11:08:33.550Z,32.40
2022-09-20T11:11:11.125Z,32.10
2022-09-20T11:13:57.881Z,32.50
2022-09-20T11:17:05.708Z,32.40
2022-09-20T11:19:47.399Z,32.20
2022-09-20T11:22:21.279Z,32.30
2022-09-20T11:24:59.244Z,31.90
2022-09-20T11:27:33.832Z,32.10
2022-09-20T11:30:06.952Z,32.30
2022-09-20T11:33:02.119Z,32.40
2022-09-20T11:35:46.974Z,32.30
2022-09-20T11:38:27.361Z,31.80
2022-09-20T11:41:16.588Z,31.50
2022-09-20T11:43:47.030Z,32.00
2022-09-20T11:46:25.840Z,32.40
2022-09-20T11:49:02.253Z,32.50
2022-09-20T11:51:44.607Z,31.90
2022-09-20T11:54:23.763Z,31.70
2022-09-20T11:56:56.199Z,31.80
2022-09-20T11:59:40.015Z,32.20
2022-09-20T12:02:37.644Z,31.60
2022-09-20T12:05:07.614Z,32.20
2022-09-20T12:07:40.412Z,32.10
2022-09-20T12:10:30.008Z,31.90
2022-09-20T12:13:01.732Z,31.80
2022-09-20T12:15:40.858Z,31.90
2022-09-20T12:19:45.738Z,31.30
2022-09-20T12:22:26.884Z,30.80
2022-09-20T12:25:36.849Z,31.10
2022-09-20T12:28:15.696Z,31.40
2022-09-20T12:30:45.112Z,31.60
2022-09-20T12:33:21.049Z,31.70
2022-09-20T12:36:12.593Z,31.30
2022-09-20T12:38:47.849Z,31.40
2022-09-20T12:41:28.212Z,31.70
2022-09-20T12:44:01.952Z,31.70
2022-09-20T12:46:43.312Z,31.30
2022-09-20T12:49:27.291Z,31.20
2022-09-20T12:51:55.821Z,31.00
2022-09-20T12:54:24.475Z,31.00
2022-09-20T12:56:52.830Z,31.20
2022-09-20T12:59:27.007Z,31.00
2022-09-20T13:01:55.397Z,31.30
2022-09-20T13:04:55.602Z,31.40
2022-09-20T13:07:47.152Z,31.40
2022-09-20T13:10:37.003Z,31.20
2022-09-20T13:13:17.047Z,31.20
2022-09-20T13:15:53.336Z,31.50
2022-09-20T13:18:23.231Z,31.30
2022-09-20T13:20:51.928Z,31.10
2022-09-20T13:23:27.829Z,31.20
2022-09-20T13:25:58.220Z,31.50
2022-09-20T13:28:31.122Z,31.20
2022-09-20T13:31:22.410Z,31.60
2022-09-20T13:33:51.249Z,31.10
2022-09-20T13:36:38.058Z,30.80
2022-09-20T13:39:08.117Z,31.00
2022-09-20T13:41:36.501Z,31.20
2022-09-20T13:44:05.133Z,31.20
2022-09-20T13:46:34.593Z,30.80
2022-09-20T13:49:20.178Z,31.10
2022-09-20T13:51:49.385Z,31.40
2022-09-20T13:54:27.073Z,31.30
2022-09-20T13:57:04.745Z,31.20
2022-09-20T13:59:45.872Z,30.90
2022-09-20T14:02:26.962Z,31.00
2022-09-20T14:04:57.223Z,31.30
2022-09-20T14:07:25.831Z,31.70
2022-09-20T14:09:54.581Z,31.40
2022-09-20T14:13:31.854Z,30.90
2022-09-20T14:16:01.183Z,31.00
2022-09-20T14:18:29.891Z,30.90
2022-09-20T14:20:59.412Z,30.90
2022-09-20T14:23:30.046Z,31.00
2022-09-20T14:26:16.876Z,30.90
2022-09-20T14:28:45.321Z,30.80
2022-09-20T14:31:28.153Z,31.00
2022-09-20T14:34:03.057Z,31.20
2022-09-20T14:36:32.366Z,31.40
2022-09-20T14:39:05.893Z,31.60
2022-09-20T14:41:39.566Z,31.30
2022-09-20T14:44:37.472Z,31.20
2022-09-20T14:47:16.172Z,31.20
2022-09-20T14:49:45.326Z,31.40
2022-09-20T14:52:28.599Z,31.60
2022-09-20T14:55:26.527Z,31.10
2022-09-20T14:58:01.837Z,31.60
2022-09-20T15:00:30.759Z,31.30
2022-09-20T15:03:07.733Z,31.30
2022-09-20T15:05:36.574Z,30.90
2022-09-20T15:08:04.871Z,30.40
2022-09-20T15:10:33.296Z,30.00
2022-09-20T15:13:01.569Z,30.00
2022-09-20T15:15:29.999Z,30.10
2022-09-20T15:17:58.834Z,30.60
2022-09-20T15:20:27.289Z,30.90
2022-09-20T15:22:55.478Z,30.90
2022-09-20T15:25:24.021Z,30.80
2022-09-20T15:27:52.391Z,30.70
2022-09-20T15:30:21.016Z,30.90
2022-09-20T15:32:49.556Z,30.80
2022-09-20T15:35:17.906Z,30.80
2022-09-20T15:37:46.153Z,30.90
2022-09-20T15:40:14.795Z,31.20
2022-09-20T15:42:43.335Z,31.30
2022-09-20T15:45:12.887Z,30.80
2022-09-20T15:47:41.522Z,30.50
2022-09-20T15:50:10.156Z,30.30
2022-09-20T15:52:40.159Z,30.30
2022-09-20T15:55:09.813Z,30.30
2022-09-20T15:57:38.119Z,30.30
2022-09-20T16:00:06.965Z,30.30
2022-09-20T16:02:36.527Z,30.40
2022-09-20T16:05:05.085Z,30.50
2022-09-20T16:07:33.301Z,30.50
2022-09-20T16:10:01.529Z,30.20
2022-09-20T16:12:29.728Z,29.70
2022-09-20T16:14:58.009Z,29.90
2022-09-20T16:17:26.377Z,29.80
2022-09-20T16:19:54.811Z,29.80
2022-09-20T16:22:22.904Z,30.00
2022-09-20T16:24:51.111Z,30.10
2022-09-20T16:27:19.492Z,29.80
2022-09-20T16:29:47.630Z,29.70
2022-09-20T16:32:15.801Z,29.60
2022-09-20T16:34:44.009Z,29.70
2022-09-20T16:37:14.188Z,29.80
2022-09-20T16:39:42.388Z,29.80
2022-09-20T16:42:12.507Z,29.50
2022-09-20T16:44:43.053Z,29.70
2022-09-20T16:47:14.770Z,29.70
2022-09-20T16:49:43.006Z,29.60
2022-09-20T16:52:12.182Z,29.60
2022-09-20T16:54:40.518Z,29.10
2022-09-20T16:57:09.757Z,29.10
2022-09-20T16:59:37.881Z,29.40
2022-09-20T17:02:06.249Z,29.30
2022-09-20T17:04:34.323Z,29.20
2022-09-20T17:07:02.511Z,29.30
2022-09-20T17:09:30.745Z,29.40
2022-09-20T17:11:59.009Z,29.50
2022-09-20T17:14:27.149Z,29.50
2022-09-20T17:16:55.361Z,29.30
2022-09-20T17:19:23.579Z,29.00
2022-09-20T17:21:51.695Z,29.00
2022-09-20T17:24:21.980Z,29.20
2022-09-20T17:26:51.221Z,28.90
2022-09-20T17:29:20.369Z,28.90
2022-09-20T17:31:54.987Z,29.10
2022-09-20T17:34:24.119Z,29.10
2022-09-20T17:36:52.754Z,29.10
2022-09-20T17:39:20.960Z,29.10
2022-09-20T17:41:50.452Z,28.70
2022-09-20T17:44:19.124Z,28.70
2022-09-20T17:46:48.889Z,28.90
2022-09-20T17:49:20.138Z,28.70
2022-09-20T17:51:50.834Z,28.50
2022-09-20T17:54:20.184Z,28.60
2022-09-20T17:56:50.526Z,28.70
2022-09-20T17:59:20.656Z,28.80
2022-09-20T18:01:51.172Z,28.70
2022-09-20T18:04:19.677Z,28.40
2022-09-20T18:06:52.654Z,28.40
2022-09-20T18:09:24.072Z,28.50
2022-09-20T18:11:55.038Z,28.30
2022-09-20T18:14:28.065Z,28.30
2022-09-20T18:16:59.117Z,28.60
2022-09-20T18:19:27.787Z,28.50
2022-09-20T18:21:55.857Z,28.50
2022-09-20T18:24:24.122Z,28.30
2022-09-20T18:26:52.197Z,28.20
2022-09-20T18:29:20.330Z,28.40
2022-09-20T18:31:57.297Z,28.50
2022-09-20T18:34:27.822Z,28.20
2022-09-20T18:36:58.162Z,28.20
2022-09-20T18:39:31.518Z,28.40
2022-09-20T18:41:59.872Z,28.30
2022-09-20T18:44:28.411Z,28.20
2022-09-20T18:46:56.728Z,27.90
2022-09-20T18:49:24.831Z,27.90
2022-09-20T18:51:53.125Z,27.90
2022-09-20T18:54:21.280Z,27.80
2022-09-20T18:57:00.008Z,27.70
2022-09-20T18:59:28.766Z,28.00
2022-09-20T19:02:44.458Z,28.10
2022-09-20T19:05:19.444Z,28.00
2022-09-20T19:08:16.983Z,27.70
2022-09-20T19:10:52.653Z,27.60
2022-09-20T19:13:26.496Z,27.90
2022-09-20T19:16:00.767Z,28.10
2022-09-20T19:18:56.779Z,27.80
2022-09-20T19:21:31.839Z,27.80
2022-09-20T19:24:34.054Z,28.00
2022-09-20T19:27:02.313Z,28.20
2022-09-20T19:29:30.623Z,28.00
2022-09-20T19:32:00.104Z,27.60
2022-09-20T19:34:32.893Z,27.50
2022-09-20T19:37:10.387Z,27.80
2022-09-20T19:39:51.779Z,27.90
2022-09-20T19:42:40.675Z,27.70
2022-09-20T19:45:33.363Z,27.90
2022-09-20T19:48:19.659Z,28.00
2022-09-20T19:50:52.654Z,28.00
2022-09-20T19:53:23.149Z,27.90
2022-09-20T19:55:57.437Z,27.60
2022-09-20T19:58:25.877Z,27.70
2022-09-20T20:00:54.062Z,28.00
2022-09-20T20:03:22.562Z,28.00
2022-09-20T20:06:23.157Z,27.70
2022-09-20T20:09:27.394Z,27.70
2022-09-20T20:12:34.855Z,27.50
2022-09-20T20:15:46.049Z,27.50
2022-09-20T20:18:48.147Z,27.20
2022-09-20T20:21:37.475Z,27.10
2022-09-20T20:24:17.768Z,27.30
2022-09-20T20:26:45.911Z,27.30
2022-09-20T20:29:13.954Z,27.00
2022-09-20T20:31:42.299Z,27.20
2022-09-20T20:34:10.444Z,27.40
2022-09-20T20:36:39.196Z,27.40
2022-09-20T20:39:07.513Z,27.30
2022-09-20T20:41:35.620Z,27.10
2022-09-20T20:44:04.710Z,27.20
2022-09-20T20:46:34.139Z,27.50
2022-09-20T20:49:05.118Z,27.50
2022-09-20T20:51:33.435Z,27.20
2022-09-20T20:54:03.479Z,27.30
2022-09-20T20:56:32.315Z,27.50
2022-09-20T20:59:00.362Z,27.50
2022-09-20T21:01:34.233Z,27.60
2022-09-20T21:04:03.338Z,27.30
2022-09-20T21:06:37.203Z,27.20
2022-09-20T21:09:06.425Z,27.30
2022-09-20T21:11:39.837Z,27.50
2022-09-20T21:14:08.910Z,27.30
2022-09-20T21:16:42.273Z,27.30
2022-09-20T21:19:12.107Z,27.40
2022-09-20T21:21:42.087Z,27.50
2022-09-20T21:24:12.650Z,27.50
2022-09-20T21:26:41.516Z,27.40
2022-09-20T21:29:14.117Z,27.20
2022-09-20T21:31:44.608Z,27.20
2022-09-20T21:34:14.683Z,27.40
2022-09-20T21:36:42.958Z,27.40
2022-09-20T21:39:11.280Z,27.30
2022-09-20T21:41:40.488Z,27.40
2022-09-20T21:44:09.538Z,27.60
2022-09-20T21:46:39.599Z,27.70
2022-09-20T21:49:10.605Z,27.60
2022-09-20T21:51:40.259Z,27.30
2022-09-20T21:54:09.042Z,27.20
2022-09-20T21:56:38.730Z,27.30
2022-09-20T21:59:07.386Z,27.40
2022-09-20T22:01:38.121Z,27.40
2022-09-20T22:04:12.054Z,27.20
2022-09-20T22:06:42.423Z,27.30
2022-09-20T22:09:15.980Z,27.50
2022-09-20T22:11:49.257Z,27.40
2022-09-20T22:14:19.331Z,27.50
2022-09-20T22:16:48.829Z,27.30
2022-09-20T22:19:18.429Z,27.10
2022-09-20T22:21:48.654Z,27.10
2022-09-20T22:24:17.681Z,27.30
2022-09-20T22:26:50.655Z,27.40
2022-09-20T22:29:19.289Z,27.20
2022-09-20T22:31:48.958Z,27.10
2022-09-20T22:34:19.798Z,27.20
2022-09-20T22:36:48.666Z,27.30
2022-09-20T22:39:17.415Z,27.40
2022-09-20T22:41:46.183Z,27.20
2022-09-20T22:44:14.574Z,27.10
2022-09-20T22:46:42.812Z,27.30
2022-09-20T22:49:11.065Z,27.40
2022-09-20T22:51:39.750Z,27.30
2022-09-20T22:54:10.754Z,27.20
2022-09-20T22:56:39.965Z,27.30
2022-09-20T22:59:10.776Z,27.40
2022-09-20T23:01:41.864Z,27.40
2022-09-20T23:04:12.810Z,27.40
2022-09-20T23:06:43.818Z,27.10
2022-09-20T23:09:13.803Z,27.20
2022-09-20T23:11:43.543Z,27.40
2022-09-20T23:14:13.580Z,27.50
2022-09-20T23:16:42.789Z,27.30
2022-09-20T23:19:11.793Z,27.10
2022-09-20T23:21:41.483Z,27.40
2022-09-20T23:24:12.171Z,27.50
2022-09-20T23:26:41.585Z,27.40
2022-09-20T23:29:12.673Z,27.40
2022-09-20T23:31:45.159Z,27.10
2022-09-20T23:34:15.116Z,27.10
2022-09-20T23:36:44.287Z,27.40
2022-09-20T23:39:12.944Z,27.50
2022-09-20T23:41:41.646Z,27.20
2022-09-20T23:44:10.460Z,27.00
2022-09-20T23:46:39.633Z,27.30
2022-09-20T23:49:08.182Z,27.40
2022-09-20T23:51:36.712Z,27.50
2022-09-20T23:54:05.195Z,27.40
2022-09-20T23:56:33.483Z,27.10
2022-09-20T23:59:01.590Z,27.00
